createdAt,value
2022-08-29T00:01:41.008Z,101267.59
2022-08-29T00:04:07.528Z,101276.91
2022-08-29T00:06:33.958Z,101271.31
2022-08-29T00:09:00.305Z,101265.16
2022-08-29T00:11:26.821Z,101266.34
2022-08-29T00:13:53.209Z,101264.25
2022-08-29T00:16:19.787Z,101270.09
2022-08-29T00:18:46.277Z,101262.75
2022-08-29T00:21:12.640Z,101269.56
2022-08-29T00:23:39.558Z,101274.19
2022-08-29T00:26:06.457Z,101268.81
2022-08-29T00:28:32.954Z,101264.06
2022-08-29T00:30:59.321Z,101260.91
2022-08-29T00:33:25.716Z,101266.38
2022-08-29T00:35:52.094Z,101259.81
2022-08-29T00:38:19.300Z,101261.16
2022-08-29T00:40:51.475Z,101256.44
2022-08-29T00:43:19.955Z,101255.84
2022-08-29T00:45:51.100Z,101254.44
2022-08-29T00:48:18.345Z,101253.66
2022-08-29T00:50:48.225Z,101260.97
2022-08-29T00:53:15.953Z,101260.44
2022-08-29T00:55:44.404Z,101268.66
2022-08-29T00:58:29.255Z,101262.22
2022-08-29T01:00:55.742Z,101265.13
2022-08-29T01:03:22.214Z,101254.25
2022-08-29T01:05:48.946Z,101249.38
2022-08-29T01:08:15.863Z,101259.63
2022-08-29T01:11:01.240Z,101263.56
2022-08-29T01:13:30.946Z,101255.09
2022-08-29T01:15:58.169Z,101263.66
2022-08-29T01:18:26.409Z,101255.66
2022-08-29T01:21:14.877Z,101260.03
2022-08-29T01:23:49.409Z,101267.06
2022-08-29T01:26:15.820Z,101262.88
2022-08-29T01:28:43.836Z,101273.06
2022-08-29T01:31:12.025Z,101265.53
2022-08-29T01:33:43.256Z,101270.13
2022-08-29T01:36:10.991Z,101273.69
2022-08-29T01:38:38.326Z,101274.53
2022-08-29T01:41:04.700Z,101266.72
2022-08-29T01:43:31.432Z,101272.72
2022-08-29T01:45:58.580Z,101267.56
2022-08-29T01:48:25.009Z,101274.84
2022-08-29T01:50:51.973Z,101267.44
2022-08-29T01:53:19.214Z,101267.53
2022-08-29T01:55:45.604Z,101262.25
2022-08-29T01:58:11.985Z,101267.53
2022-08-29T02:00:38.480Z,101269.88
2022-08-29T02:03:04.978Z,101275.34
2022-08-29T02:05:31.373Z,101278.56
2022-08-29T02:07:58.185Z,101274.25
2022-08-29T02:10:24.963Z,101277.38
2022-08-29T02:12:52.360Z,101276.19
2022-08-29T02:15:19.871Z,101273.16
2022-08-29T02:17:48.535Z,101275.66
2022-08-29T02:20:15.333Z,101270.66
2022-08-29T02:22:42.210Z,101270.88
2022-08-29T02:25:29.451Z,101275.25
2022-08-29T02:27:55.851Z,101267.41
2022-08-29T02:30:22.572Z,101270.94
2022-08-29T02:32:50.137Z,101276.50
2022-08-29T02:35:17.201Z,101278.44
2022-08-29T02:37:44.053Z,101273.97
2022-08-29T02:40:10.652Z,101264.81
2022-08-29T02:42:37.981Z,101267.22
2022-08-29T02:45:05.706Z,101269.44
2022-08-29T02:47:36.461Z,101267.66
2022-08-29T02:50:07.301Z,101264.97
2022-08-29T02:52:37.281Z,101268.63
2022-08-29T02:55:04.062Z,101259.69
2022-08-29T02:57:30.411Z,101255.59
2022-08-29T02:59:56.842Z,101266.13
2022-08-29T03:02:23.258Z,101259.38
2022-08-29T03:04:49.647Z,101261.25
2022-08-29T03:07:16.283Z,101262.13
2022-08-29T03:09:42.626Z,101257.06
2022-08-29T03:12:08.986Z,101259.97
2022-08-29T03:14:35.400Z,101253.97
2022-08-29T03:17:01.814Z,101251.56
2022-08-29T03:19:28.285Z,101249.09
2022-08-29T03:21:54.985Z,101248.81
2022-08-29T03:24:26.926Z,101240.91
2022-08-29T03:26:56.336Z,101236.38
2022-08-29T03:29:23.424Z,101238.41
2022-08-29T03:31:49.772Z,101235.06
2022-08-29T03:34:16.424Z,101238.91
2022-08-29T03:36:42.778Z,101233.72
2022-08-29T03:39:09.497Z,101236.16
2022-08-29T03:41:35.950Z,101234.31
2022-08-29T03:44:02.405Z,101226.31
2022-08-29T03:46:28.847Z,101228.78
2022-08-29T03:48:55.269Z,101243.44
2022-08-29T03:51:22.756Z,101241.50
2022-08-29T03:53:51.393Z,101242.00
2022-08-29T03:56:18.128Z,101246.81
2022-08-29T03:58:48.087Z,101240.31
2022-08-29T04:01:19.321Z,101248.50
2022-08-29T04:03:45.788Z,101249.94
2022-08-29T04:06:12.412Z,101252.78
2022-08-29T04:08:38.801Z,101245.22
2022-08-29T04:11:12.107Z,101244.09
2022-08-29T04:13:38.497Z,101249.13
2022-08-29T04:16:14.920Z,101247.03
2022-08-29T04:18:41.518Z,101245.19
2022-08-29T04:21:08.063Z,101237.66
2022-08-29T04:23:35.459Z,101247.84
2022-08-29T04:26:25.811Z,101256.22
2022-08-29T04:28:48.180Z,101255.00
2022-08-29T04:31:20.344Z,101262.59
2022-08-29T04:33:47.620Z,101261.97
2022-08-29T04:36:15.075Z,101256.81
2022-08-29T04:38:41.597Z,101259.94
2022-08-29T04:41:08.670Z,101249.63
2022-08-29T04:43:35.368Z,101252.91
2022-08-29T04:46:02.124Z,101259.72
2022-08-29T04:48:28.964Z,101257.19
2022-08-29T04:50:59.257Z,101262.56
2022-08-29T04:53:26.191Z,101270.97
2022-08-29T04:55:57.228Z,101272.94
2022-08-29T04:58:25.173Z,101267.72
2022-08-29T05:00:53.281Z,101270.28
2022-08-29T05:03:20.324Z,101272.28
2022-08-29T05:05:54.699Z,101267.22
2022-08-29T05:08:21.341Z,101267.69
2022-08-29T05:10:47.915Z,101268.41
2022-08-29T05:13:14.488Z,101263.41
2022-08-29T05:15:40.897Z,101273.88
2022-08-29T05:18:07.436Z,101276.50
2022-08-29T05:20:33.842Z,101277.16
2022-08-29T05:23:00.188Z,101278.78
2022-08-29T05:25:26.617Z,101282.50
2022-08-29T05:27:53.821Z,101274.97
2022-08-29T05:30:34.583Z,101282.81
2022-08-29T05:33:01.695Z,101285.25
2022-08-29T05:35:28.078Z,101275.94
2022-08-29T05:37:54.462Z,101279.88
2022-08-29T05:40:21.629Z,101274.00
2022-08-29T05:42:48.418Z,101273.97
2022-08-29T05:45:16.040Z,101278.88
2022-08-29T05:47:42.889Z,101280.78
2022-08-29T05:50:10.216Z,101282.03
2022-08-29T05:52:36.626Z,101285.47
2022-08-29T05:55:04.056Z,101287.19
2022-08-29T05:57:30.947Z,101288.31
2022-08-29T05:59:57.839Z,101293.41
2022-08-29T06:02:25.208Z,101298.91
2022-08-29T06:04:52.124Z,101293.38
2022-08-29T06:07:19.009Z,101298.22
2022-08-29T06:09:46.027Z,101295.31
2022-08-29T06:12:14.212Z,101301.94
2022-08-29T06:14:41.306Z,101298.41
2022-08-29T06:17:16.751Z,101302.31
2022-08-29T06:19:43.186Z,101302.69
2022-08-29T06:22:10.606Z,101301.53
2022-08-29T06:24:37.887Z,101309.28
2022-08-29T06:27:04.299Z,101306.13
2022-08-29T06:29:30.691Z,101309.19
2022-08-29T06:31:57.754Z,101318.25
2022-08-29T06:34:24.687Z,101313.03
2022-08-29T06:36:51.421Z,101315.22
2022-08-29T06:39:18.717Z,101307.31
2022-08-29T06:41:45.174Z,101304.91
2022-08-29T06:44:11.539Z,101302.91
2022-08-29T06:46:42.167Z,101306.28
2022-08-29T06:49:10.688Z,101304.84
2022-08-29T06:51:38.097Z,101306.72
2022-08-29T06:54:07.140Z,101307.44
2022-08-29T06:56:34.183Z,101314.88
2022-08-29T06:59:03.779Z,101320.84
2022-08-29T07:01:31.138Z,101326.81
2022-08-29T07:03:59.924Z,101319.06
2022-08-29T07:06:27.356Z,101327.06
2022-08-29T07:08:55.748Z,101325.97
2022-08-29T07:11:23.244Z,101336.13
2022-08-29T07:13:49.585Z,101325.53
2022-08-29T07:16:16.922Z,101332.75
2022-08-29T07:18:43.894Z,101323.03
2022-08-29T07:21:11.555Z,101327.44
2022-08-29T07:23:37.949Z,101329.13
2022-08-29T07:26:08.901Z,101334.38
2022-08-29T07:28:35.867Z,101336.03
2022-08-29T07:31:05.082Z,101334.09
2022-08-29T07:33:31.702Z,101332.97
2022-08-29T07:36:01.255Z,101336.13
2022-08-29T07:38:30.779Z,101339.66
2022-08-29T07:40:58.860Z,101349.69
2022-08-29T07:43:28.129Z,101348.06
2022-08-29T07:45:55.062Z,101348.94
2022-08-29T07:48:23.156Z,101355.22
2022-08-29T07:50:50.010Z,101358.03
2022-08-29T07:53:17.162Z,101357.66
2022-08-29T07:55:43.916Z,101358.41
2022-08-29T07:58:10.376Z,101359.69
2022-08-29T08:00:36.796Z,101351.69
2022-08-29T08:03:03.535Z,101368.03
2022-08-29T08:05:29.962Z,101369.31
2022-08-29T08:07:56.573Z,101369.22
2022-08-29T08:10:22.951Z,101368.91
2022-08-29T08:12:49.537Z,101367.97
2022-08-29T08:15:16.637Z,101373.16
2022-08-29T08:17:44.203Z,101376.75
2022-08-29T08:20:11.681Z,101379.13
2022-08-29T08:22:38.214Z,101381.00
2022-08-29T08:25:05.248Z,101377.63
2022-08-29T08:27:32.395Z,101374.03
2022-08-29T08:29:59.886Z,101383.19
2022-08-29T08:32:32.331Z,101383.16
2022-08-29T08:34:59.385Z,101383.06
2022-08-29T08:37:25.745Z,101381.84
2022-08-29T08:39:58.060Z,101392.19
2022-08-29T08:42:33.725Z,101383.63
2022-08-29T08:45:05.859Z,101381.66
2022-08-29T08:47:34.868Z,101390.03
2022-08-29T08:50:05.777Z,101390.44
2022-08-29T08:52:38.179Z,101389.72
2022-08-29T08:55:09.754Z,101395.25
2022-08-29T08:57:39.920Z,101385.72
2022-08-29T09:00:07.762Z,101394.97
2022-08-29T09:02:35.293Z,101393.84
2022-08-29T09:05:28.410Z,101398.63
2022-08-29T09:08:13.667Z,101395.09
2022-08-29T09:10:58.914Z,101393.16
2022-08-29T09:13:38.520Z,101392.41
2022-08-29T09:16:26.624Z,101389.25
2022-08-29T09:18:54.249Z,101398.03
2022-08-29T09:21:40.922Z,101392.94
2022-08-29T09:24:10.821Z,101391.38
2022-08-29T09:26:38.545Z,101390.19
2022-08-29T09:29:07.653Z,101387.84
2022-08-29T09:31:35.364Z,101390.25
2022-08-29T09:34:01.770Z,101389.88
2022-08-29T09:36:34.030Z,101395.78
2022-08-29T09:39:33.458Z,101385.94
2022-08-29T09:42:11.814Z,101387.88
2022-08-29T09:44:38.499Z,101392.25
2022-08-29T09:47:04.857Z,101390.31
2022-08-29T09:49:31.256Z,101406.13
2022-08-29T09:52:07.131Z,101398.22
2022-08-29T09:54:33.841Z,101406.53
2022-08-29T09:57:03.855Z,101407.75
2022-08-29T09:59:35.507Z,101413.31
2022-08-29T10:02:10.924Z,101412.53
2022-08-29T10:04:42.361Z,101405.41
2022-08-29T10:07:18.153Z,101411.31
2022-08-29T10:10:00.225Z,101414.16
2022-08-29T10:12:32.618Z,101422.81
2022-08-29T10:15:02.174Z,101430.78
2022-08-29T10:17:54.502Z,101422.84
2022-08-29T10:20:28.650Z,101427.19
2022-08-29T10:23:17.775Z,101427.97
2022-08-29T10:25:44.140Z,101425.28
2022-08-29T10:28:13.302Z,101430.44
2022-08-29T10:30:39.626Z,101426.88
2022-08-29T10:33:15.206Z,101424.09
2022-08-29T10:38:07.947Z,101430.88
2022-08-29T10:40:52.685Z,101432.53
2022-08-29T10:43:19.983Z,101431.75
2022-08-29T10:46:06.650Z,101441.28
2022-08-29T10:48:37.970Z,101435.75
2022-08-29T10:51:07.404Z,101439.34
2022-08-29T10:53:36.400Z,101437.75
2022-08-29T10:56:26.027Z,101437.34
2022-08-29T10:58:59.900Z,101434.56
2022-08-29T11:01:33.612Z,101427.44
2022-08-29T11:04:00.030Z,101431.03
2022-08-29T11:06:30.202Z,101428.25
2022-08-29T11:09:15.576Z,101431.38
2022-08-29T11:11:46.343Z,101430.63
2022-08-29T11:14:21.836Z,101435.00
2022-08-29T11:16:50.004Z,101436.59
2022-08-29T11:19:27.321Z,101447.72
2022-08-29T11:22:00.753Z,101435.75
2022-08-29T11:24:34.398Z,101452.88
2022-08-29T11:27:10.360Z,101448.50
2022-08-29T11:29:39.985Z,101436.59
2022-08-29T11:32:19.974Z,101440.16
2022-08-29T11:34:51.704Z,101431.41
2022-08-29T11:37:25.972Z,101436.97
2022-08-29T11:40:04.940Z,101431.03
2022-08-29T11:45:25.588Z,101438.56
2022-08-29T11:48:16.998Z,101435.41
2022-08-29T11:50:43.745Z,101443.38
2022-08-29T11:53:36.349Z,101446.13
2022-08-29T11:56:15.199Z,101443.34
2022-08-29T11:58:46.370Z,101453.69
2022-08-29T12:01:32.881Z,101453.28
2022-08-29T12:03:59.921Z,101440.38
2022-08-29T12:06:32.295Z,101443.31
2022-08-29T12:09:16.020Z,101450.09
2022-08-29T12:12:12.640Z,101452.88
2022-08-29T12:14:50.057Z,101454.88
2022-08-29T12:17:16.410Z,101449.34
2022-08-29T12:19:47.753Z,101457.31
2022-08-29T12:22:33.140Z,101452.91
2022-08-29T12:25:19.523Z,101454.53
2022-08-29T12:27:57.359Z,101456.09
2022-08-29T12:30:23.840Z,101461.28
2022-08-29T12:33:13.503Z,101454.09
2022-08-29T12:36:01.942Z,101454.88
2022-08-29T12:38:36.815Z,101462.06
2022-08-29T12:41:18.545Z,101454.91
2022-08-29T12:43:45.496Z,101455.69
2022-08-29T12:46:24.439Z,101465.97
2022-08-29T12:48:57.156Z,101461.22
2022-08-29T12:51:34.457Z,101467.22
2022-08-29T12:54:01.207Z,101465.22
2022-08-29T12:56:27.708Z,101455.66
2022-08-29T12:58:58.603Z,101451.69
2022-08-29T13:01:25.317Z,101470.38
2022-08-29T13:04:03.505Z,101473.19
2022-08-29T13:06:30.595Z,101468.41
2022-08-29T13:08:57.319Z,101460.44
2022-08-29T13:11:25.889Z,101461.66
2022-08-29T13:14:02.846Z,101467.59
2022-08-29T13:16:30.606Z,101453.31
2022-08-29T13:19:12.125Z,101456.50
2022-08-29T13:21:38.651Z,101454.47
2022-08-29T13:24:13.472Z,101450.91
2022-08-29T13:26:50.709Z,101444.94
2022-08-29T13:29:38.619Z,101446.94
2022-08-29T13:32:31.539Z,101443.38
2022-08-29T13:35:13.543Z,101448.13
2022-08-29T13:37:43.003Z,101445.75
2022-08-29T13:40:28.183Z,101439.41
2022-08-29T13:42:54.625Z,101446.19
2022-08-29T13:45:22.727Z,101455.72
2022-08-29T13:48:00.974Z,101431.47
2022-08-29T13:50:27.809Z,101431.44
2022-08-29T13:52:55.216Z,101425.84
2022-08-29T13:55:21.931Z,101437.78
2022-08-29T13:57:50.236Z,101439.03
2022-08-29T14:00:16.838Z,101436.19
2022-08-29T14:02:45.812Z,101440.63
2022-08-29T14:05:13.678Z,101431.84
2022-08-29T14:07:40.766Z,101442.59
2022-08-29T14:10:07.599Z,101452.53
2022-08-29T14:12:34.279Z,101443.38
2022-08-29T14:15:05.129Z,101444.56
2022-08-29T14:17:34.778Z,101447.72
2022-08-29T14:20:01.181Z,101448.50
2022-08-29T14:22:27.668Z,101447.69
2022-08-29T14:24:54.097Z,101446.50
2022-08-29T14:27:21.250Z,101443.75
2022-08-29T14:29:48.200Z,101454.84
2022-08-29T14:32:14.802Z,101453.69
2022-08-29T14:34:41.307Z,101454.84
2022-08-29T14:37:18.187Z,101451.66
2022-08-29T14:39:44.697Z,101451.25
2022-08-29T14:42:16.893Z,101450.47
2022-08-29T14:44:43.261Z,101445.28
2022-08-29T14:47:09.694Z,101447.31
2022-08-29T14:49:36.210Z,101440.97
2022-08-29T14:52:02.966Z,101449.31
2022-08-29T14:54:29.410Z,101452.88
2022-08-29T14:56:55.781Z,101442.13
2022-08-29T14:59:22.978Z,101442.16
2022-08-29T15:01:54.123Z,101449.72
2022-08-29T15:04:30.384Z,101444.94
2022-08-29T15:07:02.972Z,101443.75
2022-08-29T15:09:29.418Z,101442.94
2022-08-29T15:11:55.885Z,101445.78
2022-08-29T15:14:22.437Z,101450.94
2022-08-29T15:16:48.886Z,101432.25
2022-08-29T15:19:53.317Z,101445.38
2022-08-29T15:22:01.681Z,101450.13
2022-08-29T15:24:29.778Z,101446.16
2022-08-29T15:26:56.530Z,101446.97
2022-08-29T15:29:23.073Z,101441.00
2022-08-29T15:31:51.817Z,101437.38
2022-08-29T15:34:18.785Z,101437.38
2022-08-29T15:36:45.254Z,101436.59
2022-08-29T15:39:13.106Z,101443.75
2022-08-29T15:41:39.458Z,101446.16
2022-08-29T15:44:05.855Z,101443.41
2022-08-29T15:46:33.795Z,101436.59
2022-08-29T15:49:05.834Z,101441.78
2022-08-29T15:51:32.549Z,101446.53
2022-08-29T15:53:58.979Z,101435.78
2022-08-29T15:56:25.519Z,101437.38
2022-08-29T15:58:54.279Z,101436.19
2022-08-29T16:01:20.729Z,101437.38
2022-08-29T16:03:47.116Z,101431.41
2022-08-29T16:06:13.717Z,101432.66
2022-08-29T16:08:40.166Z,101432.28
2022-08-29T16:11:12.605Z,101441.38
2022-08-29T16:13:38.964Z,101427.09
2022-08-29T16:16:05.784Z,101432.25
2022-08-29T16:18:32.163Z,101431.81
2022-08-29T16:20:58.519Z,101431.81
2022-08-29T16:23:25.123Z,101439.78
2022-08-29T16:25:51.490Z,101434.63
2022-08-29T16:28:18.864Z,101433.44
2022-08-29T16:30:46.356Z,101435.00
2022-08-29T16:33:13.466Z,101429.84
2022-08-29T16:35:39.957Z,101429.44
2022-08-29T16:38:06.787Z,101436.19
2022-08-29T16:40:33.330Z,101436.59
2022-08-29T16:43:00.451Z,101442.59
2022-08-29T16:45:26.867Z,101434.63
2022-08-29T16:47:57.403Z,101434.25
2022-08-29T16:50:24.746Z,101435.44
2022-08-29T16:52:51.161Z,101425.47
2022-08-29T16:55:17.792Z,101436.19
2022-08-29T16:58:06.905Z,101426.63
2022-08-29T17:00:33.730Z,101426.63
2022-08-29T17:03:00.355Z,101417.47
2022-08-29T17:05:27.176Z,101421.06
2022-08-29T17:07:53.548Z,101422.66
2022-08-29T17:10:19.957Z,101419.06
2022-08-29T17:12:46.283Z,101416.28
2022-08-29T17:15:12.619Z,101418.28
2022-08-29T17:17:39.001Z,101415.47
2022-08-29T17:20:05.779Z,101421.41
2022-08-29T17:22:32.573Z,101417.47
2022-08-29T17:24:59.344Z,101411.50
2022-08-29T17:27:29.831Z,101415.50
2022-08-29T17:29:56.595Z,101420.69
2022-08-29T17:32:23.168Z,101409.53
2022-08-29T17:34:50.285Z,101409.53
2022-08-29T17:37:16.676Z,101417.88
2022-08-29T17:39:43.657Z,101426.22
2022-08-29T17:42:10.100Z,101414.28
2022-08-29T17:44:36.623Z,101419.41
2022-08-29T17:47:04.134Z,101421.81
2022-08-29T17:49:31.803Z,101418.56
2022-08-29T17:51:58.369Z,101426.16
2022-08-29T17:54:25.644Z,101417.38
2022-08-29T17:56:54.237Z,101425.41
2022-08-29T17:59:21.277Z,101426.59
2022-08-29T18:01:48.296Z,101425.84
2022-08-29T18:04:15.009Z,101419.44
2022-08-29T18:06:41.650Z,101427.41
2022-08-29T18:09:08.672Z,101437.31
2022-08-29T18:11:45.917Z,101438.13
2022-08-29T18:14:12.396Z,101440.47
2022-08-29T18:16:39.534Z,101455.56
2022-08-29T18:19:06.180Z,101449.97
2022-08-29T18:21:33.131Z,101453.16
2022-08-29T18:24:00.252Z,101465.50
2022-08-29T18:26:26.746Z,101475.00
2022-08-29T18:28:53.582Z,101466.63
2022-08-29T18:31:20.043Z,101459.38
2022-08-29T18:34:00.269Z,101457.72
2022-08-29T18:36:27.349Z,101469.66
2022-08-29T18:38:53.943Z,101465.59
2022-08-29T18:41:20.520Z,101466.91
2022-08-29T18:43:47.260Z,101479.06
2022-08-29T18:46:13.754Z,101473.69
2022-08-29T18:48:42.092Z,101481.44
2022-08-29T18:51:08.679Z,101484.00
2022-08-29T18:53:35.025Z,101474.34
2022-08-29T18:56:01.534Z,101473.94
2022-08-29T18:58:29.612Z,101474.63
2022-08-29T19:00:57.031Z,101482.59
2022-08-29T19:03:23.574Z,101473.03
2022-08-29T19:05:52.302Z,101474.66
2022-08-29T19:08:20.087Z,101477.06
2022-08-29T19:10:47.308Z,101480.31
2022-08-29T19:13:14.841Z,101485.13
2022-08-29T19:15:42.053Z,101481.91
2022-08-29T19:18:09.383Z,101484.47
2022-08-29T19:20:54.483Z,101489.63
2022-08-29T19:23:21.321Z,101492.00
2022-08-29T19:25:48.957Z,101489.59
2022-08-29T19:28:16.386Z,101493.09
2022-08-29T19:30:43.300Z,101490.69
2022-08-29T19:33:10.435Z,101489.41
2022-08-29T19:35:38.666Z,101492.16
2022-08-29T19:38:05.915Z,101496.44
2022-08-29T19:40:36.021Z,101486.88
2022-08-29T19:43:13.900Z,101493.34
2022-08-29T19:45:42.208Z,101489.16
2022-08-29T19:48:08.894Z,101483.34
2022-08-29T19:50:41.420Z,101492.63
2022-08-29T19:53:10.034Z,101485.28
2022-08-29T19:55:37.960Z,101482.41
2022-08-29T19:58:04.970Z,101484.47
2022-08-29T20:00:31.560Z,101485.72
2022-08-29T20:02:58.610Z,101486.19
2022-08-29T20:05:25.390Z,101485.50
2022-08-29T20:07:53.487Z,101491.44
2022-08-29T20:10:22.571Z,101491.97
2022-08-29T20:12:49.755Z,101493.25
2022-08-29T20:15:16.876Z,101488.34
2022-08-29T20:17:43.416Z,101496.28
2022-08-29T20:20:12.102Z,101493.91
2022-08-29T20:22:38.761Z,101489.34
2022-08-29T20:25:06.669Z,101488.44
2022-08-29T20:27:34.608Z,101482.66
2022-08-29T20:30:01.173Z,101491.31
2022-08-29T20:32:27.703Z,101484.56
2022-08-29T20:34:54.091Z,101485.22
2022-08-29T20:37:22.634Z,101485.59
2022-08-29T20:39:50.070Z,101486.56
2022-08-29T20:42:18.114Z,101482.41
2022-08-29T20:44:45.381Z,101480.78
2022-08-29T20:47:14.532Z,101482.28
2022-08-29T20:49:43.902Z,101485.81
2022-08-29T20:52:11.348Z,101487.75
2022-08-29T20:54:38.924Z,101489.97
2022-08-29T20:57:06.570Z,101486.22
2022-08-29T20:59:35.130Z,101489.75
2022-08-29T21:02:03.024Z,101495.44
2022-08-29T21:04:48.044Z,101490.28
2022-08-29T21:07:15.157Z,101487.38
2022-08-29T21:09:45.622Z,101487.88
2022-08-29T21:12:13.592Z,101491.25
2022-08-29T21:14:40.400Z,101487.53
2022-08-29T21:17:08.616Z,101487.41
2022-08-29T21:19:35.155Z,101487.78
2022-08-29T21:22:02.721Z,101495.13
2022-08-29T21:24:29.612Z,101485.25
2022-08-29T21:26:56.206Z,101494.19
2022-08-29T21:29:22.647Z,101491.13
2022-08-29T21:31:50.367Z,101490.91
2022-08-29T21:34:17.410Z,101498.81
2022-08-29T21:36:44.085Z,101493.44
2022-08-29T21:39:11.298Z,101491.69
2022-08-29T21:41:39.349Z,101492.41
2022-08-29T21:44:06.465Z,101493.25
2022-08-29T21:46:33.930Z,101501.28
2022-08-29T21:49:04.033Z,101502.34
2022-08-29T21:51:30.961Z,101506.31
2022-08-29T21:53:58.571Z,101506.00
2022-08-29T21:56:26.277Z,101516.09
2022-08-29T21:58:53.635Z,101506.13
2022-08-29T22:01:22.273Z,101511.63
2022-08-29T22:03:50.658Z,101517.84
2022-08-29T22:06:18.028Z,101521.44
2022-08-29T22:08:45.585Z,101520.94
2022-08-29T22:11:13.990Z,101517.84
2022-08-29T22:13:40.499Z,101517.72
2022-08-29T22:16:25.582Z,101518.56
2022-08-29T22:18:52.169Z,101518.47
2022-08-29T22:21:19.051Z,101527.03
2022-08-29T22:23:45.388Z,101524.63
2022-08-29T22:26:13.004Z,101525.06
2022-08-29T22:28:39.950Z,101520.84
2022-08-29T22:31:06.371Z,101518.06
2022-08-29T22:33:32.965Z,101514.66
2022-08-29T22:35:59.483Z,101518.88
2022-08-29T22:38:25.862Z,101523.19
2022-08-29T22:40:52.241Z,101517.97
2022-08-29T22:43:18.965Z,101517.63
2022-08-29T22:45:45.669Z,101518.25
2022-08-29T22:48:12.037Z,101510.69
2022-08-29T22:50:45.915Z,101511.06
2022-08-29T22:53:24.299Z,101514.63
2022-08-29T22:55:50.637Z,101515.41
2022-08-29T22:58:17.004Z,101515.69
2022-08-29T23:00:43.349Z,101510.56
2022-08-29T23:03:09.805Z,101519.22
2022-08-29T23:05:36.290Z,101520.28
2022-08-29T23:08:02.816Z,101514.41
2022-08-29T23:10:29.157Z,101518.38
2022-08-29T23:12:55.596Z,101514.00
2022-08-29T23:15:21.925Z,101512.28
2022-08-29T23:17:48.273Z,101519.16
2022-08-29T23:20:16.953Z,101516.31
2022-08-29T23:22:45.687Z,101515.97
2022-08-29T23:25:12.588Z,101515.97
2022-08-29T23:27:39.089Z,101514.88
2022-08-29T23:30:08.074Z,101513.41
2022-08-29T23:32:34.466Z,101506.63
2022-08-29T23:35:00.834Z,101508.28
2022-08-29T23:37:27.255Z,101509.94
2022-08-29T23:39:53.631Z,101512.56
2022-08-29T23:42:19.965Z,101512.91
2022-08-29T23:44:48.310Z,101518.06
2022-08-29T23:47:15.227Z,101516.63
2022-08-29T23:49:41.669Z,101509.56
2022-08-29T23:52:08.133Z,101511.56
2022-08-29T23:54:36.433Z,101506.69
2022-08-29T23:57:03.508Z,101512.50
2022-08-29T23:59:50.591Z,101514.09
